TimeMST,TemperatureF,Dew PointF,Humidity,Sea Level PressureIn,VisibilityMPH,Wind Direction,Wind SpeedMPH,Gust SpeedMPH,PrecipitationIn,Events,Conditions,WindDirDegrees,DateUTC
12:48 AM,10.9,7.0,84,30.64,-9999.0,Calm,Calm,-,N/A,,Unknown,0,2012-11-23 07:48:00
1:48 AM,12.0,8.1,84,30.61,-9999.0,Calm,Calm,-,N/A,,Unknown,0,2012-11-23 08:48:00
2:48 AM,12.0,7.0,80,30.61,-9999.0,Calm,Calm,-,N/A,,Unknown,0,2012-11-23 09:48:00
3:48 AM,12.0,8.1,84,30.58,-9999.0,Calm,Calm,-,N/A,,Unknown,0,2012-11-23 10:48:00
4:48 AM,12.9,9.0,84,30.56,-9999.0,East,3.5,-,N/A,,Unknown,90,2012-11-23 11:48:00
5:48 AM,14.0,10.0,84,30.56,-9999.0,East,3.5,-,N/A,,Unknown,80,2012-11-23 12:48:00
6:48 AM,14.0,10.0,84,30.53,-9999.0,East,4.6,-,N/A,,Unknown,80,2012-11-23 13:48:00
7:48 AM,15.1,10.9,84,30.52,-9999.0,East,3.5,-,N/A,,Unknown,90,2012-11-23 14:48:00
8:48 AM,19.0,15.1,85,30.49,-9999.0,ESE,3.5,-,N/A,,Unknown,120,2012-11-23 15:48:00
9:48 AM,24.1,19.0,81,30.46,-9999.0,ESE,3.5,-,N/A,,Unknown,110,2012-11-23 16:48:00
10:48 AM,30.9,23.0,72,30.42,-9999.0,South,6.9,-,N/A,,Unknown,170,2012-11-23 17:48:00
11:48 AM,35.1,21.0,57,30.37,-9999.0,South,10.4,-,N/A,,Unknown,170,2012-11-23 18:48:00
12:48 PM,37.0,21.9,54,30.30,-9999.0,SE,9.2,-,N/A,,Unknown,140,2012-11-23 19:48:00
1:48 PM,41.0,21.9,47,30.25,-9999.0,SSE,10.4,-,N/A,,Unknown,160,2012-11-23 20:48:00
2:48 PM,37.9,21.9,53,30.23,-9999.0,SE,10.4,-,N/A,,Unknown,140,2012-11-23 21:48:00
3:48 PM,35.1,23.0,61,30.21,-9999.0,SE,8.1,-,N/A,,Unknown,130,2012-11-23 22:48:00
4:48 PM,33.1,24.1,70,30.19,-9999.0,East,6.9,-,N/A,,Unknown,90,2012-11-23 23:48:00
5:48 PM,32.0,24.1,73,30.16,-9999.0,ENE,8.1,-,N/A,,Unknown,70,2012-11-24 00:48:00
6:48 PM,30.9,24.1,76,30.14,-9999.0,East,5.8,-,N/A,,Unknown,80,2012-11-24 01:48:00
7:48 PM,28.9,24.1,82,30.13,-9999.0,Calm,Calm,-,N/A,,Unknown,0,2012-11-24 02:48:00
8:48 PM,28.9,25.0,85,30.10,-9999.0,Calm,Calm,-,N/A,,Unknown,0,2012-11-24 03:48:00
9:48 PM,26.1,21.9,84,30.07,-9999.0,Calm,Calm,-,N/A,,Unknown,0,2012-11-24 04:48:00
10:48 PM,25.0,23.0,92,30.04,-9999.0,Calm,Calm,-,N/A,,Unknown,0,2012-11-24 05:48:00
11:48 PM,26.1,23.0,88,29.99,-9999.0,Calm,Calm,-,N/A,,Unknown,0,2012-11-24 06:48:00